Terminal Aerodrome Forecast
Issued by NWS Charleston, WV

Current Version | Previous Version | Graphics & Text | Print | Product List | Glossary On
Versions: 1 2 3 4 5 6 7 8 9 10 11 12 13 14 15 16 17 18 19 20 21 22 23 24 25
000
FTUS41 KRLX 292300
TAFCRW
TAF
KCRW 292335Z 3000/3024 18005KT P6SM BKN140
     FM300500 22008KT P6SM -RA OVC080
     FM300800 23008KT P6SM -SHRA OVC030
     FM301000 24008KT P6SM OVC030
     FM301400 28008KT P6SM BKN035
     FM301600 28009KT P6SM SCT035
     FM302100 28012G18KT P6SM SKC
     FM302300 27007KT P6SM SKC=

USA.gov is the U.S. government's official web portal to all federal, state and local government web resources and services.